sensor_id;sensor_type;location;lat;lon;timestamp;P1;durP1;ratioP1;P2;durP2;ratioP2
67585;SDS011;55785;47.946;20.540;2023-04-25T00:02:02;9.32;;;6.75;;
67585;SDS011;55785;47.946;20.540;2023-04-25T00:04:27;8.85;;;7.10;;
67585;SDS011;55785;47.946;20.540;2023-04-25T00:06:56;9.77;;;7.25;;
67585;SDS011;55785;47.946;20.540;2023-04-25T00:09:21;9.00;;;6.78;;
67585;SDS011;55785;47.946;20.540;2023-04-25T00:11:47;9.20;;;7.25;;
67585;SDS011;55785;47.946;20.540;2023-04-25T00:14:13;9.88;;;7.43;;
67585;SDS011;55785;47.946;20.540;2023-04-25T00:16:39;11.25;;;8.02;;
67585;SDS011;55785;47.946;20.540;2023-04-25T00:19:04;16.13;;;8.77;;
67585;SDS011;55785;47.946;20.540;2023-04-25T00:21:30;17.23;;;9.02;;
67585;SDS011;55785;47.946;20.540;2023-04-25T00:23:55;21.63;;;9.30;;
67585;SDS011;55785;47.946;20.540;2023-04-25T00:26:21;26.10;;;10.55;;
67585;SDS011;55785;47.946;20.540;2023-04-25T00:28:46;31.30;;;11.43;;
67585;SDS011;55785;47.946;20.540;2023-04-25T00:31:12;22.27;;;10.82;;
67585;SDS011;55785;47.946;20.540;2023-04-25T00:33:38;28.58;;;11.18;;
67585;SDS011;55785;47.946;20.540;2023-04-25T00:36:03;23.10;;;10.77;;
67585;SDS011;55785;47.946;20.540;2023-04-25T00:38:29;20.80;;;11.20;;
67585;SDS011;55785;47.946;20.540;2023-04-25T00:40:54;16.92;;;10.00;;
67585;SDS011;55785;47.946;20.540;2023-04-25T00:43:19;17.48;;;10.02;;
67585;SDS011;55785;47.946;20.540;2023-04-25T00:45:45;18.58;;;10.43;;
67585;SDS011;55785;47.946;20.540;2023-04-25T00:48:13;18.17;;;9.93;;
67585;SDS011;55785;47.946;20.540;2023-04-25T00:50:39;17.95;;;10.23;;
67585;SDS011;55785;47.946;20.540;2023-04-25T00:53:04;16.63;;;9.57;;
67585;SDS011;55785;47.946;20.540;2023-04-25T00:55:30;13.38;;;8.68;;
67585;SDS011;55785;47.946;20.540;2023-04-25T00:57:55;18.67;;;9.00;;
67585;SDS011;55785;47.946;20.540;2023-04-25T01:00:20;13.80;;;8.68;;
67585;SDS011;55785;47.946;20.540;2023-04-25T01:02:46;13.27;;;8.73;;
67585;SDS011;55785;47.946;20.540;2023-04-25T01:05:11;15.32;;;9.45;;
67585;SDS011;55785;47.946;20.540;2023-04-25T01:07:37;17.38;;;8.88;;
67585;SDS011;55785;47.946;20.540;2023-04-25T01:10:03;13.27;;;8.82;;
67585;SDS011;55785;47.946;20.540;2023-04-25T01:12:29;17.10;;;9.95;;
67585;SDS011;55785;47.946;20.540;2023-04-25T01:14:55;14.63;;;8.88;;
67585;SDS011;55785;47.946;20.540;2023-04-25T01:17:20;12.82;;;8.55;;
67585;SDS011;55785;47.946;20.540;2023-04-25T01:19:46;13.57;;;9.00;;
67585;SDS011;55785;47.946;20.540;2023-04-25T01:22:11;12.20;;;8.68;;
67585;SDS011;55785;47.946;20.540;2023-04-25T01:24:36;13.85;;;8.57;;
67585;SDS011;55785;47.946;20.540;2023-04-25T01:27:02;13.25;;;8.45;;
67585;SDS011;55785;47.946;20.540;2023-04-25T01:29:28;13.98;;;9.20;;
67585;SDS011;55785;47.946;20.540;2023-04-25T01:31:54;14.43;;;9.15;;
67585;SDS011;55785;47.946;20.540;2023-04-25T01:34:19;14.05;;;9.23;;
67585;SDS011;55785;47.946;20.540;2023-04-25T01:36:47;13.40;;;8.70;;
67585;SDS011;55785;47.946;20.540;2023-04-25T01:39:14;14.05;;;8.90;;
67585;SDS011;55785;47.946;20.540;2023-04-25T01:41:40;12.43;;;8.38;;
67585;SDS011;55785;47.946;20.540;2023-04-25T01:44:05;15.43;;;9.10;;
67585;SDS011;55785;47.946;20.540;2023-04-25T01:46:32;13.57;;;8.88;;
67585;SDS011;55785;47.946;20.540;2023-04-25T01:48:58;12.85;;;9.13;;
67585;SDS011;55785;47.946;20.540;2023-04-25T01:51:24;41.38;;;10.30;;
67585;SDS011;55785;47.946;20.540;2023-04-25T01:53:49;19.90;;;9.95;;
67585;SDS011;55785;47.946;20.540;2023-04-25T01:56:15;23.15;;;9.25;;
67585;SDS011;55785;47.946;20.540;2023-04-25T01:58:42;38.30;;;9.80;;
67585;SDS011;55785;47.946;20.540;2023-04-25T02:01:08;36.70;;;9.60;;
67585;SDS011;55785;47.946;20.540;2023-04-25T02:03:33;26.90;;;9.63;;
67585;SDS011;55785;47.946;20.540;2023-04-25T02:05:59;24.67;;;10.15;;
67585;SDS011;55785;47.946;20.540;2023-04-25T02:08:24;14.60;;;9.85;;
67585;SDS011;55785;47.946;20.540;2023-04-25T02:10:50;14.38;;;9.48;;
67585;SDS011;55785;47.946;20.540;2023-04-25T02:13:15;31.25;;;9.98;;
67585;SDS011;55785;47.946;20.540;2023-04-25T02:15:40;71.32;;;9.98;;
67585;SDS011;55785;47.946;20.540;2023-04-25T02:18:06;21.52;;;9.48;;
67585;SDS011;55785;47.946;20.540;2023-04-25T02:20:32;49.85;;;10.02;;
67585;SDS011;55785;47.946;20.540;2023-04-25T02:22:57;78.47;;;9.80;;
67585;SDS011;55785;47.946;20.540;2023-04-25T02:25:23;69.40;;;9.90;;
67585;SDS011;55785;47.946;20.540;2023-04-25T02:27:48;56.13;;;9.70;;
67585;SDS011;55785;47.946;20.540;2023-04-25T02:30:14;52.22;;;10.05;;
67585;SDS011;55785;47.946;20.540;2023-04-25T02:32:40;69.35;;;10.05;;
67585;SDS011;55785;47.946;20.540;2023-04-25T02:35:05;54.85;;;9.90;;
67585;SDS011;55785;47.946;20.540;2023-04-25T02:37:31;44.33;;;9.80;;
67585;SDS011;55785;47.946;20.540;2023-04-25T02:40:00;15.43;;;9.40;;
67585;SDS011;55785;47.946;20.540;2023-04-25T02:42:26;17.55;;;9.25;;
67585;SDS011;55785;47.946;20.540;2023-04-25T02:44:52;16.75;;;10.02;;
67585;SDS011;55785;47.946;20.540;2023-04-25T02:47:18;31.45;;;8.93;;
67585;SDS011;55785;47.946;20.540;2023-04-25T02:49:43;29.83;;;9.32;;
67585;SDS011;55785;47.946;20.540;2023-04-25T02:52:09;45.80;;;9.98;;
67585;SDS011;55785;47.946;20.540;2023-04-25T02:54:34;56.70;;;9.77;;
67585;SDS011;55785;47.946;20.540;2023-04-25T02:57:00;41.53;;;9.15;;
67585;SDS011;55785;47.946;20.540;2023-04-25T02:59:25;48.45;;;9.23;;
67585;SDS011;55785;47.946;20.540;2023-04-25T03:01:50;36.00;;;9.43;;
67585;SDS011;55785;47.946;20.540;2023-04-25T03:04:16;28.60;;;9.30;;
67585;SDS011;55785;47.946;20.540;2023-04-25T03:06:41;53.20;;;9.82;;
67585;SDS011;55785;47.946;20.540;2023-04-25T03:09:06;38.38;;;9.50;;
67585;SDS011;55785;47.946;20.540;2023-04-25T03:11:32;41.25;;;9.25;;
67585;SDS011;55785;47.946;20.540;2023-04-25T03:13:57;40.25;;;9.07;;
67585;SDS011;55785;47.946;20.540;2023-04-25T03:16:23;33.75;;;9.02;;
67585;SDS011;55785;47.946;20.540;2023-04-25T03:18:48;69.60;;;10.20;;
67585;SDS011;55785;47.946;20.540;2023-04-25T03:21:14;25.08;;;8.93;;
67585;SDS011;55785;47.946;20.540;2023-04-25T03:23:39;18.67;;;9.38;;
67585;SDS011;55785;47.946;20.540;2023-04-25T03:26:04;29.85;;;9.52;;
67585;SDS011;55785;47.946;20.540;2023-04-25T03:28:30;66.05;;;10.13;;
67585;SDS011;55785;47.946;20.540;2023-04-25T03:30:55;14.95;;;9.73;;
67585;SDS011;55785;47.946;20.540;2023-04-25T03:33:20;13.50;;;9.10;;
67585;SDS011;55785;47.946;20.540;2023-04-25T03:35:46;14.60;;;9.48;;
67585;SDS011;55785;47.946;20.540;2023-04-25T03:38:12;18.80;;;9.48;;
67585;SDS011;55785;47.946;20.540;2023-04-25T03:40:37;13.85;;;9.25;;
67585;SDS011;55785;47.946;20.540;2023-04-25T03:43:02;15.93;;;9.23;;
67585;SDS011;55785;47.946;20.540;2023-04-25T03:45:28;12.10;;;8.43;;
67585;SDS011;55785;47.946;20.540;2023-04-25T03:47:53;11.65;;;8.35;;
67585;SDS011;55785;47.946;20.540;2023-04-25T03:50:18;14.40;;;8.40;;
67585;SDS011;55785;47.946;20.540;2023-04-25T03:52:45;11.65;;;7.88;;
67585;SDS011;55785;47.946;20.540;2023-04-25T03:55:10;11.73;;;7.22;;
67585;SDS011;55785;47.946;20.540;2023-04-25T03:57:35;9.60;;;7.15;;
67585;SDS011;55785;47.946;20.540;2023-04-25T04:00:01;11.48;;;8.45;;
67585;SDS011;55785;47.946;20.540;2023-04-25T04:02:26;11.40;;;7.78;;
67585;SDS011;55785;47.946;20.540;2023-04-25T04:04:52;11.35;;;7.95;;
67585;SDS011;55785;47.946;20.540;2023-04-25T04:07:17;12.23;;;8.55;;
67585;SDS011;55785;47.946;20.540;2023-04-25T04:09:42;11.70;;;8.18;;
67585;SDS011;55785;47.946;20.540;2023-04-25T04:12:08;12.63;;;7.75;;
67585;SDS011;55785;47.946;20.540;2023-04-25T04:14:33;11.57;;;7.68;;
67585;SDS011;55785;47.946;20.540;2023-04-25T04:16:58;10.30;;;7.13;;
67585;SDS011;55785;47.946;20.540;2023-04-25T04:19:24;11.95;;;7.85;;
67585;SDS011;55785;47.946;20.540;2023-04-25T04:21:49;11.30;;;7.90;;
67585;SDS011;55785;47.946;20.540;2023-04-25T04:24:14;12.18;;;7.93;;
67585;SDS011;55785;47.946;20.540;2023-04-25T04:26:40;11.70;;;7.82;;
67585;SDS011;55785;47.946;20.540;2023-04-25T04:29:05;11.25;;;8.07;;
67585;SDS011;55785;47.946;20.540;2023-04-25T04:31:30;12.27;;;8.00;;
67585;SDS011;55785;47.946;20.540;2023-04-25T04:33:56;11.20;;;7.25;;
67585;SDS011;55785;47.946;20.540;2023-04-25T04:36:21;11.07;;;7.82;;
67585;SDS011;55785;47.946;20.540;2023-04-25T04:38:46;10.05;;;7.30;;
67585;SDS011;55785;47.946;20.540;2023-04-25T04:41:12;11.27;;;7.03;;
67585;SDS011;55785;47.946;20.540;2023-04-25T04:43:37;10.93;;;6.97;;
67585;SDS011;55785;47.946;20.540;2023-04-25T04:46:02;11.32;;;7.10;;
67585;SDS011;55785;47.946;20.540;2023-04-25T04:48:28;10.30;;;7.47;;
67585;SDS011;55785;47.946;20.540;2023-04-25T04:50:53;10.75;;;7.43;;
67585;SDS011;55785;47.946;20.540;2023-04-25T04:53:19;10.80;;;7.32;;
67585;SDS011;55785;47.946;20.540;2023-04-25T04:55:44;13.73;;;7.57;;
67585;SDS011;55785;47.946;20.540;2023-04-25T04:58:09;9.57;;;6.90;;
67585;SDS011;55785;47.946;20.540;2023-04-25T05:00:35;10.40;;;7.10;;
67585;SDS011;55785;47.946;20.540;2023-04-25T05:03:00;10.65;;;6.88;;
67585;SDS011;55785;47.946;20.540;2023-04-25T05:05:25;10.80;;;7.47;;
67585;SDS011;55785;47.946;20.540;2023-04-25T05:07:51;10.52;;;7.30;;
67585;SDS011;55785;47.946;20.540;2023-04-25T05:10:19;11.18;;;7.68;;
67585;SDS011;55785;47.946;20.540;2023-04-25T05:12:45;10.93;;;7.60;;
67585;SDS011;55785;47.946;20.540;2023-04-25T05:15:10;12.00;;;7.72;;
67585;SDS011;55785;47.946;20.540;2023-04-25T05:17:36;10.80;;;7.65;;
67585;SDS011;55785;47.946;20.540;2023-04-25T05:20:01;11.75;;;7.60;;
67585;SDS011;55785;47.946;20.540;2023-04-25T05:22:27;9.70;;;7.30;;
67585;SDS011;55785;47.946;20.540;2023-04-25T05:24:52;9.77;;;7.43;;
67585;SDS011;55785;47.946;20.540;2023-04-25T05:27:17;10.98;;;7.15;;
67585;SDS011;55785;47.946;20.540;2023-04-25T05:29:43;11.25;;;7.60;;
67585;SDS011;55785;47.946;20.540;2023-04-25T05:32:09;9.95;;;7.22;;
67585;SDS011;55785;47.946;20.540;2023-04-25T05:34:34;10.10;;;7.07;;
67585;SDS011;55785;47.946;20.540;2023-04-25T05:37:00;10.13;;;7.20;;
67585;SDS011;55785;47.946;20.540;2023-04-25T05:39:25;10.80;;;7.53;;
67585;SDS011;55785;47.946;20.540;2023-04-25T05:41:51;10.57;;;7.38;;
67585;SDS011;55785;47.946;20.540;2023-04-25T05:44:17;11.55;;;7.88;;
67585;SDS011;55785;47.946;20.540;2023-04-25T05:46:42;11.80;;;7.97;;
67585;SDS011;55785;47.946;20.540;2023-04-25T05:49:08;10.32;;;7.20;;
67585;SDS011;55785;47.946;20.540;2023-04-25T05:51:33;10.40;;;7.50;;
67585;SDS011;55785;47.946;20.540;2023-04-25T05:53:59;9.95;;;7.00;;
67585;SDS011;55785;47.946;20.540;2023-04-25T05:56:24;10.00;;;7.07;;
67585;SDS011;55785;47.946;20.540;2023-04-25T05:58:49;10.90;;;6.60;;
67585;SDS011;55785;47.946;20.540;2023-04-25T06:01:15;8.05;;;5.78;;
67585;SDS011;55785;47.946;20.540;2023-04-25T06:03:40;7.35;;;5.25;;
67585;SDS011;55785;47.946;20.540;2023-04-25T06:06:05;8.60;;;5.25;;
67585;SDS011;55785;47.946;20.540;2023-04-25T06:08:31;8.48;;;5.65;;
67585;SDS011;55785;47.946;20.540;2023-04-25T06:10:56;8.48;;;5.55;;
67585;SDS011;55785;47.946;20.540;2023-04-25T06:13:22;7.07;;;4.85;;
67585;SDS011;55785;47.946;20.540;2023-04-25T06:15:47;9.00;;;5.57;;
67585;SDS011;55785;47.946;20.540;2023-04-25T06:18:12;7.18;;;4.78;;
67585;SDS011;55785;47.946;20.540;2023-04-25T06:20:38;7.85;;;4.65;;
67585;SDS011;55785;47.946;20.540;2023-04-25T06:23:03;6.97;;;4.57;;
67585;SDS011;55785;47.946;20.540;2023-04-25T06:25:28;8.05;;;4.55;;
67585;SDS011;55785;47.946;20.540;2023-04-25T06:27:54;7.50;;;4.70;;
67585;SDS011;55785;47.946;20.540;2023-04-25T06:30:19;5.63;;;4.43;;
67585;SDS011;55785;47.946;20.540;2023-04-25T06:32:44;5.82;;;4.47;;
67585;SDS011;55785;47.946;20.540;2023-04-25T06:35:09;8.43;;;4.85;;
67585;SDS011;55785;47.946;20.540;2023-04-25T06:37:35;5.78;;;4.28;;
67585;SDS011;55785;47.946;20.540;2023-04-25T06:40:00;6.07;;;4.40;;
67585;SDS011;55785;47.946;20.540;2023-04-25T06:42:25;5.25;;;4.30;;
67585;SDS011;55785;47.946;20.540;2023-04-25T06:44:51;9.18;;;4.80;;
67585;SDS011;55785;47.946;20.540;2023-04-25T06:47:16;6.25;;;4.38;;
67585;SDS011;55785;47.946;20.540;2023-04-25T06:49:41;8.27;;;4.93;;
67585;SDS011;55785;47.946;20.540;2023-04-25T06:52:07;6.28;;;4.88;;
67585;SDS011;55785;47.946;20.540;2023-04-25T06:54:32;5.53;;;4.00;;
67585;SDS011;55785;47.946;20.540;2023-04-25T06:56:57;6.43;;;4.05;;
67585;SDS011;55785;47.946;20.540;2023-04-25T06:59:23;5.38;;;3.90;;
67585;SDS011;55785;47.946;20.540;2023-04-25T07:01:48;6.03;;;4.45;;
67585;SDS011;55785;47.946;20.540;2023-04-25T07:04:13;5.03;;;3.97;;
67585;SDS011;55785;47.946;20.540;2023-04-25T07:06:39;5.90;;;4.30;;
67585;SDS011;55785;47.946;20.540;2023-04-25T07:09:04;5.55;;;4.13;;
67585;SDS011;55785;47.946;20.540;2023-04-25T07:11:29;6.18;;;4.28;;
67585;SDS011;55785;47.946;20.540;2023-04-25T07:13:55;5.28;;;3.90;;
67585;SDS011;55785;47.946;20.540;2023-04-25T07:16:20;4.60;;;3.38;;
67585;SDS011;55785;47.946;20.540;2023-04-25T07:18:45;5.55;;;3.85;;
67585;SDS011;55785;47.946;20.540;2023-04-25T07:21:11;6.68;;;4.07;;
67585;SDS011;55785;47.946;20.540;2023-04-25T07:23:36;5.07;;;3.55;;
67585;SDS011;55785;47.946;20.540;2023-04-25T07:26:01;4.65;;;3.30;;
67585;SDS011;55785;47.946;20.540;2023-04-25T07:28:27;6.22;;;3.88;;
67585;SDS011;55785;47.946;20.540;2023-04-25T07:30:52;4.95;;;3.65;;
67585;SDS011;55785;47.946;20.540;2023-04-25T07:33:17;5.78;;;3.45;;
67585;SDS011;55785;47.946;20.540;2023-04-25T07:35:43;3.40;;;2.90;;
67585;SDS011;55785;47.946;20.540;2023-04-25T07:38:08;3.58;;;2.80;;
67585;SDS011;55785;47.946;20.540;2023-04-25T07:40:33;3.03;;;2.35;;
67585;SDS011;55785;47.946;20.540;2023-04-25T07:42:59;3.38;;;2.50;;
67585;SDS011;55785;47.946;20.540;2023-04-25T07:45:24;3.72;;;2.40;;
67585;SDS011;55785;47.946;20.540;2023-04-25T07:47:49;6.05;;;2.60;;
67585;SDS011;55785;47.946;20.540;2023-04-25T07:50:15;2.63;;;2.05;;
67585;SDS011;55785;47.946;20.540;2023-04-25T07:52:40;2.42;;;2.15;;
67585;SDS011;55785;47.946;20.540;2023-04-25T07:55:05;3.25;;;2.55;;
67585;SDS011;55785;47.946;20.540;2023-04-25T07:57:31;3.20;;;2.20;;
67585;SDS011;55785;47.946;20.540;2023-04-25T07:59:56;2.50;;;1.92;;
67585;SDS011;55785;47.946;20.540;2023-04-25T08:02:21;4.32;;;2.20;;
67585;SDS011;55785;47.946;20.540;2023-04-25T08:04:47;3.15;;;1.50;;
67585;SDS011;55785;47.946;20.540;2023-04-25T08:07:12;1.60;;;1.13;;
67585;SDS011;55785;47.946;20.540;2023-04-25T08:09:37;1.95;;;1.00;;
67585;SDS011;55785;47.946;20.540;2023-04-25T08:12:03;1.95;;;0.90;;
67585;SDS011;55785;47.946;20.540;2023-04-25T08:14:29;1.00;;;0.70;;
67585;SDS011;55785;47.946;20.540;2023-04-25T08:16:55;2.45;;;0.70;;
67585;SDS011;55785;47.946;20.540;2023-04-25T08:19:20;3.08;;;0.70;;
67585;SDS011;55785;47.946;20.540;2023-04-25T08:21:45;8.15;;;4.97;;
67585;SDS011;55785;47.946;20.540;2023-04-25T08:24:11;6.55;;;5.25;;
67585;SDS011;55785;47.946;20.540;2023-04-25T08:26:36;7.20;;;6.22;;
67585;SDS011;55785;47.946;20.540;2023-04-25T08:29:01;6.15;;;5.00;;
67585;SDS011;55785;47.946;20.540;2023-04-25T08:31:27;4.90;;;4.40;;
67585;SDS011;55785;47.946;20.540;2023-04-25T08:33:52;6.50;;;3.42;;
67585;SDS011;55785;47.946;20.540;2023-04-25T08:36:17;2.70;;;1.77;;
67585;SDS011;55785;47.946;20.540;2023-04-25T08:38:43;1.92;;;1.73;;
67585;SDS011;55785;47.946;20.540;2023-04-25T08:41:08;2.58;;;1.30;;
67585;SDS011;55785;47.946;20.540;2023-04-25T08:43:36;1.52;;;1.30;;
67585;SDS011;55785;47.946;20.540;2023-04-25T08:46:02;2.08;;;1.20;;
67585;SDS011;55785;47.946;20.540;2023-04-25T08:48:28;2.30;;;1.10;;
67585;SDS011;55785;47.946;20.540;2023-04-25T08:50:53;1.63;;;1.05;;
67585;SDS011;55785;47.946;20.540;2023-04-25T08:53:27;1.30;;;1.00;;
67585;SDS011;55785;47.946;20.540;2023-04-25T08:55:55;2.53;;;1.08;;
67585;SDS011;55785;47.946;20.540;2023-04-25T08:58:21;3.03;;;1.30;;
67585;SDS011;55785;47.946;20.540;2023-04-25T09:00:47;1.40;;;1.30;;
67585;SDS011;55785;47.946;20.540;2023-04-25T09:03:13;4.05;;;1.30;;
67585;SDS011;55785;47.946;20.540;2023-04-25T09:05:39;1.67;;;1.08;;
67585;SDS011;55785;47.946;20.540;2023-04-25T09:08:05;1.67;;;1.20;;
67585;SDS011;55785;47.946;20.540;2023-04-25T09:10:31;3.53;;;1.23;;
67585;SDS011;55785;47.946;20.540;2023-04-25T09:13:06;1.98;;;1.30;;
67585;SDS011;55785;47.946;20.540;2023-04-25T09:15:32;1.88;;;1.38;;
67585;SDS011;55785;47.946;20.540;2023-04-25T09:31:23;4.10;;;1.80;;
67585;SDS011;55785;47.946;20.540;2023-04-25T09:33:48;2.03;;;1.50;;
67585;SDS011;55785;47.946;20.540;2023-04-25T09:36:14;2.25;;;1.40;;
67585;SDS011;55785;47.946;20.540;2023-04-25T09:38:43;2.13;;;1.42;;
67585;SDS011;55785;47.946;20.540;2023-04-25T09:41:10;3.88;;;1.90;;
67585;SDS011;55785;47.946;20.540;2023-04-25T09:43:36;2.03;;;1.60;;
67585;SDS011;55785;47.946;20.540;2023-04-25T09:46:02;3.03;;;1.60;;
67585;SDS011;55785;47.946;20.540;2023-04-25T09:48:32;2.63;;;1.10;;
67585;SDS011;55785;47.946;20.540;2023-04-25T09:53:42;1.17;;;0.90;;
67585;SDS011;55785;47.946;20.540;2023-04-25T09:56:10;1.40;;;1.00;;
67585;SDS011;55785;47.946;20.540;2023-04-25T09:58:37;1.40;;;0.90;;
67585;SDS011;55785;47.946;20.540;2023-04-25T10:01:05;0.95;;;0.70;;
67585;SDS011;55785;47.946;20.540;2023-04-25T10:03:32;2.65;;;0.90;;
67585;SDS011;55785;47.946;20.540;2023-04-25T10:06:01;1.63;;;1.10;;
67585;SDS011;55785;47.946;20.540;2023-04-25T10:08:34;2.17;;;1.13;;
67585;SDS011;55785;47.946;20.540;2023-04-25T10:11:01;1.27;;;0.90;;
67585;SDS011;55785;47.946;20.540;2023-04-25T10:13:29;3.75;;;1.90;;
67585;SDS011;55785;47.946;20.540;2023-04-25T10:15:55;6.70;;;3.10;;
67585;SDS011;55785;47.946;20.540;2023-04-25T10:18:22;8.43;;;3.90;;
67585;SDS011;55785;47.946;20.540;2023-04-25T10:20:49;3.13;;;1.85;;
67585;SDS011;55785;47.946;20.540;2023-04-25T10:23:15;1.30;;;0.90;;
67585;SDS011;55785;47.946;20.540;2023-04-25T10:25:41;1.02;;;0.70;;
67585;SDS011;55785;47.946;20.540;2023-04-25T10:28:07;1.50;;;1.10;;
67585;SDS011;55785;47.946;20.540;2023-04-25T10:30:32;6.70;;;3.55;;
67585;SDS011;55785;47.946;20.540;2023-04-25T10:32:58;7.10;;;3.20;;
67585;SDS011;55785;47.946;20.540;2023-04-25T10:35:25;6.20;;;3.05;;
67585;SDS011;55785;47.946;20.540;2023-04-25T10:37:59;4.28;;;2.20;;
67585;SDS011;55785;47.946;20.540;2023-04-25T10:40:29;7.13;;;3.00;;
67585;SDS011;55785;47.946;20.540;2023-04-25T10:42:54;15.68;;;5.03;;
67585;SDS011;55785;47.946;20.540;2023-04-25T10:45:20;5.97;;;2.40;;
67585;SDS011;55785;47.946;20.540;2023-04-25T10:47:46;6.63;;;2.83;;
67585;SDS011;55785;47.946;20.540;2023-04-25T10:50:11;5.00;;;2.40;;
67585;SDS011;55785;47.946;20.540;2023-04-25T10:52:39;2.58;;;1.33;;
67585;SDS011;55785;47.946;20.540;2023-04-25T10:55:05;2.35;;;1.30;;
67585;SDS011;55785;47.946;20.540;2023-04-25T10:57:32;2.83;;;1.20;;
67585;SDS011;55785;47.946;20.540;2023-04-25T11:02:36;1.33;;;0.90;;
67585;SDS011;55785;47.946;20.540;2023-04-25T11:05:02;1.10;;;0.80;;
67585;SDS011;55785;47.946;20.540;2023-04-25T11:10:13;1.65;;;1.10;;
67585;SDS011;55785;47.946;20.540;2023-04-25T11:12:39;1.67;;;1.10;;
67585;SDS011;55785;47.946;20.540;2023-04-25T11:15:05;1.25;;;1.10;;
67585;SDS011;55785;47.946;20.540;2023-04-25T11:17:31;1.35;;;0.82;;
67585;SDS011;55785;47.946;20.540;2023-04-25T11:19:57;0.40;;;0.40;;
67585;SDS011;55785;47.946;20.540;2023-04-25T11:22:22;7.72;;;3.80;;
67585;SDS011;55785;47.946;20.540;2023-04-25T11:24:48;2.22;;;1.70;;
67585;SDS011;55785;47.946;20.540;2023-04-25T11:27:14;1.17;;;0.70;;
67585;SDS011;55785;47.946;20.540;2023-04-25T11:29:39;0.70;;;0.70;;
67585;SDS011;55785;47.946;20.540;2023-04-25T11:32:05;0.93;;;0.82;;
67585;SDS011;55785;47.946;20.540;2023-04-25T11:34:31;0.82;;;0.60;;
67585;SDS011;55785;47.946;20.540;2023-04-25T11:36:57;1.08;;;1.00;;
67585;SDS011;55785;47.946;20.540;2023-04-25T11:39:25;2.08;;;0.55;;
67585;SDS011;55785;47.946;20.540;2023-04-25T11:41:51;1.80;;;1.20;;
67585;SDS011;55785;47.946;20.540;2023-04-25T11:44:18;1.90;;;1.27;;
67585;SDS011;55785;47.946;20.540;2023-04-25T11:46:44;0.80;;;0.70;;
67585;SDS011;55785;47.946;20.540;2023-04-25T11:49:11;0.40;;;0.40;;
67585;SDS011;55785;47.946;20.540;2023-04-25T11:51:43;0.40;;;0.40;;
67585;SDS011;55785;47.946;20.540;2023-04-25T11:54:10;1.02;;;0.70;;
67585;SDS011;55785;47.946;20.540;2023-04-25T11:56:36;1.92;;;1.60;;
67585;SDS011;55785;47.946;20.540;2023-04-25T11:59:05;2.50;;;1.67;;
67585;SDS011;55785;47.946;20.540;2023-04-25T12:01:31;2.47;;;1.40;;
67585;SDS011;55785;47.946;20.540;2023-04-25T12:03:58;1.65;;;1.00;;
67585;SDS011;55785;47.946;20.540;2023-04-25T12:06:27;1.15;;;0.90;;
67585;SDS011;55785;47.946;20.540;2023-04-25T12:09:03;1.55;;;1.00;;
67585;SDS011;55785;47.946;20.540;2023-04-25T12:14:01;2.50;;;1.38;;
67585;SDS011;55785;47.946;20.540;2023-04-25T12:16:29;4.35;;;1.00;;
67585;SDS011;55785;47.946;20.540;2023-04-25T12:18:55;0.43;;;0.40;;
67585;SDS011;55785;47.946;20.540;2023-04-25T12:21:21;1.33;;;1.00;;
67585;SDS011;55785;47.946;20.540;2023-04-25T12:23:46;1.80;;;1.00;;
67585;SDS011;55785;47.946;20.540;2023-04-25T12:26:11;2.53;;;1.65;;
67585;SDS011;55785;47.946;20.540;2023-04-25T12:28:37;1.80;;;0.90;;
67585;SDS011;55785;47.946;20.540;2023-04-25T12:31:06;0.77;;;0.50;;
67585;SDS011;55785;47.946;20.540;2023-04-25T12:33:32;0.28;;;0.28;;
67585;SDS011;55785;47.946;20.540;2023-04-25T12:35:59;0.43;;;0.40;;
67585;SDS011;55785;47.946;20.540;2023-04-25T12:38:29;0.82;;;0.60;;
67585;SDS011;55785;47.946;20.540;2023-04-25T12:40:55;1.00;;;0.60;;
67585;SDS011;55785;47.946;20.540;2023-04-25T12:43:21;0.52;;;0.50;;
67585;SDS011;55785;47.946;20.540;2023-04-25T12:45:48;1.30;;;0.90;;
67585;SDS011;55785;47.946;20.540;2023-04-25T12:48:14;0.98;;;0.50;;
67585;SDS011;55785;47.946;20.540;2023-04-25T12:50:39;0.60;;;0.60;;
67585;SDS011;55785;47.946;20.540;2023-04-25T12:53:05;1.20;;;0.65;;
67585;SDS011;55785;47.946;20.540;2023-04-25T12:55:30;0.65;;;0.50;;
67585;SDS011;55785;47.946;20.540;2023-04-25T12:57:55;1.58;;;0.90;;
67585;SDS011;55785;47.946;20.540;2023-04-25T13:00:21;2.08;;;0.55;;
67585;SDS011;55785;47.946;20.540;2023-04-25T13:02:46;0.70;;;0.60;;
67585;SDS011;55785;47.946;20.540;2023-04-25T13:05:12;0.30;;;0.30;;
67585;SDS011;55785;47.946;20.540;2023-04-25T13:07:37;0.60;;;0.60;;
67585;SDS011;55785;47.946;20.540;2023-04-25T13:10:03;1.33;;;0.70;;
67585;SDS011;55785;47.946;20.540;2023-04-25T13:12:29;1.08;;;0.75;;
67585;SDS011;55785;47.946;20.540;2023-04-25T13:14:54;1.10;;;0.60;;
67585;SDS011;55785;47.946;20.540;2023-04-25T13:17:19;0.70;;;0.60;;
67585;SDS011;55785;47.946;20.540;2023-04-25T13:19:45;0.50;;;0.40;;
67585;SDS011;55785;47.946;20.540;2023-04-25T13:22:10;0.40;;;0.40;;
67585;SDS011;55785;47.946;20.540;2023-04-25T13:24:35;0.80;;;0.60;;
67585;SDS011;55785;47.946;20.540;2023-04-25T13:27:01;0.73;;;0.55;;
67585;SDS011;55785;47.946;20.540;2023-04-25T13:29:26;1.08;;;0.60;;
67585;SDS011;55785;47.946;20.540;2023-04-25T13:31:51;0.60;;;0.60;;
67585;SDS011;55785;47.946;20.540;2023-04-25T13:34:17;0.40;;;0.40;;
67585;SDS011;55785;47.946;20.540;2023-04-25T13:36:42;0.75;;;0.75;;
67585;SDS011;55785;47.946;20.540;2023-04-25T13:39:07;0.45;;;0.45;;
67585;SDS011;55785;47.946;20.540;2023-04-25T13:41:33;1.20;;;0.70;;
67585;SDS011;55785;47.946;20.540;2023-04-25T13:43:58;1.08;;;0.60;;
67585;SDS011;55785;47.946;20.540;2023-04-25T13:46:23;2.05;;;0.90;;
67585;SDS011;55785;47.946;20.540;2023-04-25T13:48:49;0.93;;;0.60;;
67585;SDS011;55785;47.946;20.540;2023-04-25T13:51:15;0.95;;;0.60;;
67585;SDS011;55785;47.946;20.540;2023-04-25T13:53:41;0.60;;;0.60;;
67585;SDS011;55785;47.946;20.540;2023-04-25T13:56:06;0.88;;;0.70;;
67585;SDS011;55785;47.946;20.540;2023-04-25T13:58:31;0.40;;;0.40;;
67585;SDS011;55785;47.946;20.540;2023-04-25T14:00:57;1.05;;;0.70;;
67585;SDS011;55785;47.946;20.540;2023-04-25T14:03:22;0.50;;;0.50;;
67585;SDS011;55785;47.946;20.540;2023-04-25T14:05:47;1.10;;;0.60;;
67585;SDS011;55785;47.946;20.540;2023-04-25T14:08:13;0.60;;;0.60;;
67585;SDS011;55785;47.946;20.540;2023-04-25T14:10:38;1.05;;;0.30;;
67585;SDS011;55785;47.946;20.540;2023-04-25T14:13:04;0.40;;;0.40;;
67585;SDS011;55785;47.946;20.540;2023-04-25T14:15:30;0.63;;;0.40;;
67585;SDS011;55785;47.946;20.540;2023-04-25T14:17:56;0.60;;;0.50;;
67585;SDS011;55785;47.946;20.540;2023-04-25T14:20:22;1.23;;;0.70;;
67585;SDS011;55785;47.946;20.540;2023-04-25T14:22:47;0.47;;;0.47;;
67585;SDS011;55785;47.946;20.540;2023-04-25T14:25:12;0.47;;;0.47;;
67585;SDS011;55785;47.946;20.540;2023-04-25T14:27:38;1.13;;;0.63;;
67585;SDS011;55785;47.946;20.540;2023-04-25T14:30:03;0.50;;;0.50;;
67585;SDS011;55785;47.946;20.540;2023-04-25T14:32:29;0.30;;;0.30;;
67585;SDS011;55785;47.946;20.540;2023-04-25T14:34:54;0.38;;;0.38;;
67585;SDS011;55785;47.946;20.540;2023-04-25T14:37:19;0.40;;;0.40;;
67585;SDS011;55785;47.946;20.540;2023-04-25T14:39:45;1.00;;;0.70;;
67585;SDS011;55785;47.946;20.540;2023-04-25T14:42:10;0.98;;;0.70;;
67585;SDS011;55785;47.946;20.540;2023-04-25T14:44:35;1.23;;;0.80;;